sensor_id;sensor_type;location;lat;lon;timestamp;P1;durP1;ratioP1;P2;durP2;ratioP2
5299;SDS011;70402;42.670;23.258;2024-01-25T00:02:26;11.40;;;7.32;;
5299;SDS011;70402;42.670;23.258;2024-01-25T00:04:52;9.33;;;6.70;;
5299;SDS011;70402;42.670;23.258;2024-01-25T00:07:20;10.38;;;6.38;;
5299;SDS011;70402;42.670;23.258;2024-01-25T00:09:47;12.15;;;6.57;;
5299;SDS011;70402;42.670;23.258;2024-01-25T00:12:13;14.20;;;8.50;;
5299;SDS011;70402;42.670;23.258;2024-01-25T00:14:39;16.93;;;8.67;;
5299;SDS011;70402;42.670;23.258;2024-01-25T00:17:05;17.90;;;9.60;;
5299;SDS011;70402;42.670;23.258;2024-01-25T00:19:34;13.73;;;7.90;;
5299;SDS011;70402;42.670;23.258;2024-01-25T00:22:00;11.73;;;7.27;;
5299;SDS011;70402;42.670;23.258;2024-01-25T00:24:26;15.60;;;7.90;;
5299;SDS011;70402;42.670;23.258;2024-01-25T00:26:52;11.67;;;6.70;;
5299;SDS011;70402;42.670;23.258;2024-01-25T00:29:19;16.10;;;8.50;;
5299;SDS011;70402;42.670;23.258;2024-01-25T00:31:45;16.77;;;8.20;;
5299;SDS011;70402;42.670;23.258;2024-01-25T00:34:11;15.27;;;7.27;;
5299;SDS011;70402;42.670;23.258;2024-01-25T00:36:38;15.73;;;7.23;;
5299;SDS011;70402;42.670;23.258;2024-01-25T00:39:04;9.70;;;6.20;;
5299;SDS011;70402;42.670;23.258;2024-01-25T00:41:30;13.47;;;7.10;;
5299;SDS011;70402;42.670;23.258;2024-01-25T00:43:58;13.63;;;7.50;;
5299;SDS011;70402;42.670;23.258;2024-01-25T00:46:24;14.40;;;8.40;;
5299;SDS011;70402;42.670;23.258;2024-01-25T00:48:51;14.47;;;8.97;;
5299;SDS011;70402;42.670;23.258;2024-01-25T00:51:20;13.80;;;7.80;;
5299;SDS011;70402;42.670;23.258;2024-01-25T00:53:48;15.63;;;8.02;;
5299;SDS011;70402;42.670;23.258;2024-01-25T00:56:14;11.90;;;8.00;;
5299;SDS011;70402;42.670;23.258;2024-01-25T00:58:40;17.10;;;8.30;;
5299;SDS011;70402;42.670;23.258;2024-01-25T01:01:07;16.67;;;8.00;;
5299;SDS011;70402;42.670;23.258;2024-01-25T01:03:35;11.60;;;6.43;;
5299;SDS011;70402;42.670;23.258;2024-01-25T01:06:01;9.33;;;5.43;;
5299;SDS011;70402;42.670;23.258;2024-01-25T01:08:27;12.70;;;7.47;;
5299;SDS011;70402;42.670;23.258;2024-01-25T01:10:54;11.83;;;6.47;;
5299;SDS011;70402;42.670;23.258;2024-01-25T01:13:20;8.70;;;5.00;;
5299;SDS011;70402;42.670;23.258;2024-01-25T01:15:46;11.90;;;6.60;;
5299;SDS011;70402;42.670;23.258;2024-01-25T01:18:12;12.60;;;6.17;;
5299;SDS011;70402;42.670;23.258;2024-01-25T01:20:38;12.30;;;6.80;;
5299;SDS011;70402;42.670;23.258;2024-01-25T01:23:05;16.50;;;8.63;;
5299;SDS011;70402;42.670;23.258;2024-01-25T01:25:31;17.53;;;8.70;;
5299;SDS011;70402;42.670;23.258;2024-01-25T01:27:57;13.73;;;7.70;;
5299;SDS011;70402;42.670;23.258;2024-01-25T01:30:23;7.47;;;4.70;;
5299;SDS011;70402;42.670;23.258;2024-01-25T01:32:49;9.40;;;6.10;;
5299;SDS011;70402;42.670;23.258;2024-01-25T01:35:16;9.67;;;5.77;;
5299;SDS011;70402;42.670;23.258;2024-01-25T01:37:42;9.23;;;5.93;;
5299;SDS011;70402;42.670;23.258;2024-01-25T01:40:09;9.57;;;5.50;;
5299;SDS011;70402;42.670;23.258;2024-01-25T01:42:35;3.07;;;2.63;;
5299;SDS011;70402;42.670;23.258;2024-01-25T01:45:01;1.87;;;1.60;;
5299;SDS011;70402;42.670;23.258;2024-01-25T01:47:27;1.07;;;0.87;;
5299;SDS011;70402;42.670;23.258;2024-01-25T01:49:54;0.70;;;0.70;;
5299;SDS011;70402;42.670;23.258;2024-01-25T01:52:20;2.20;;;1.07;;
5299;SDS011;70402;42.670;23.258;2024-01-25T01:54:47;1.50;;;1.30;;
5299;SDS011;70402;42.670;23.258;2024-01-25T01:57:13;3.73;;;1.00;;
5299;SDS011;70402;42.670;23.258;2024-01-25T01:59:40;0.70;;;0.70;;
5299;SDS011;70402;42.670;23.258;2024-01-25T02:02:06;1.70;;;1.10;;
5299;SDS011;70402;42.670;23.258;2024-01-25T02:04:33;0.53;;;0.53;;
5299;SDS011;70402;42.670;23.258;2024-01-25T02:06:59;0.90;;;0.70;;
5299;SDS011;70402;42.670;23.258;2024-01-25T02:09:25;2.60;;;1.00;;
5299;SDS011;70402;42.670;23.258;2024-01-25T02:12:01;0.70;;;0.70;;
5299;SDS011;70402;42.670;23.258;2024-01-25T02:14:27;0.70;;;0.60;;
5299;SDS011;70402;42.670;23.258;2024-01-25T02:16:54;1.63;;;0.60;;
5299;SDS011;70402;42.670;23.258;2024-01-25T02:19:20;0.70;;;0.60;;
5299;SDS011;70402;42.670;23.258;2024-01-25T02:21:46;0.80;;;0.60;;
5299;SDS011;70402;42.670;23.258;2024-01-25T02:24:13;0.80;;;0.60;;
5299;SDS011;70402;42.670;23.258;2024-01-25T02:26:39;1.00;;;0.60;;
5299;SDS011;70402;42.670;23.258;2024-01-25T02:29:06;0.70;;;0.57;;
5299;SDS011;70402;42.670;23.258;2024-01-25T02:31:33;0.50;;;0.50;;
5299;SDS011;70402;42.670;23.258;2024-01-25T02:33:59;0.60;;;0.50;;
5299;SDS011;70402;42.670;23.258;2024-01-25T02:36:25;2.90;;;0.70;;
5299;SDS011;70402;42.670;23.258;2024-01-25T02:38:52;0.60;;;0.60;;
5299;SDS011;70402;42.670;23.258;2024-01-25T02:41:18;0.67;;;0.50;;
5299;SDS011;70402;42.670;23.258;2024-01-25T02:43:44;0.70;;;0.60;;
5299;SDS011;70402;42.670;23.258;2024-01-25T02:46:10;0.80;;;0.70;;
5299;SDS011;70402;42.670;23.258;2024-01-25T02:48:36;0.50;;;0.50;;
5299;SDS011;70402;42.670;23.258;2024-01-25T02:51:03;0.70;;;0.50;;
5299;SDS011;70402;42.670;23.258;2024-01-25T02:53:29;0.80;;;0.60;;
5299;SDS011;70402;42.670;23.258;2024-01-25T02:55:55;1.00;;;0.57;;
5299;SDS011;70402;42.670;23.258;2024-01-25T02:58:21;0.50;;;0.40;;
5299;SDS011;70402;42.670;23.258;2024-01-25T03:00:48;0.50;;;0.50;;
5299;SDS011;70402;42.670;23.258;2024-01-25T03:03:14;0.60;;;0.50;;
5299;SDS011;70402;42.670;23.258;2024-01-25T03:05:41;0.50;;;0.40;;
5299;SDS011;70402;42.670;23.258;2024-01-25T03:08:07;1.17;;;0.70;;
5299;SDS011;70402;42.670;23.258;2024-01-25T03:10:33;0.60;;;0.60;;
5299;SDS011;70402;42.670;23.258;2024-01-25T03:13:00;0.97;;;0.60;;
5299;SDS011;70402;42.670;23.258;2024-01-25T03:15:26;0.50;;;0.50;;
5299;SDS011;70402;42.670;23.258;2024-01-25T03:17:52;1.47;;;0.60;;
5299;SDS011;70402;42.670;23.258;2024-01-25T03:20:18;2.63;;;1.07;;
5299;SDS011;70402;42.670;23.258;2024-01-25T03:22:44;0.80;;;0.57;;
5299;SDS011;70402;42.670;23.258;2024-01-25T03:25:11;0.57;;;0.53;;
5299;SDS011;70402;42.670;23.258;2024-01-25T03:27:37;0.50;;;0.50;;
5299;SDS011;70402;42.670;23.258;2024-01-25T03:30:03;0.97;;;0.70;;
5299;SDS011;70402;42.670;23.258;2024-01-25T03:32:31;0.60;;;0.50;;
5299;SDS011;70402;42.670;23.258;2024-01-25T03:34:57;0.83;;;0.60;;
5299;SDS011;70402;42.670;23.258;2024-01-25T03:37:23;1.33;;;1.03;;
5299;SDS011;70402;42.670;23.258;2024-01-25T03:39:49;0.60;;;0.60;;
5299;SDS011;70402;42.670;23.258;2024-01-25T03:42:16;0.50;;;0.50;;
5299;SDS011;70402;42.670;23.258;2024-01-25T03:44:42;0.80;;;0.63;;
5299;SDS011;70402;42.670;23.258;2024-01-25T03:47:10;1.33;;;0.77;;
5299;SDS011;70402;42.670;23.258;2024-01-25T03:49:36;0.80;;;0.60;;
5299;SDS011;70402;42.670;23.258;2024-01-25T03:52:03;0.50;;;0.50;;
5299;SDS011;70402;42.670;23.258;2024-01-25T03:54:30;1.30;;;1.20;;
5299;SDS011;70402;42.670;23.258;2024-01-25T03:56:56;1.00;;;0.90;;
5299;SDS011;70402;42.670;23.258;2024-01-25T03:59:22;0.80;;;0.67;;
5299;SDS011;70402;42.670;23.258;2024-01-25T04:01:48;0.40;;;0.40;;
5299;SDS011;70402;42.670;23.258;2024-01-25T04:04:15;0.70;;;0.60;;
5299;SDS011;70402;42.670;23.258;2024-01-25T04:06:41;1.27;;;0.87;;
5299;SDS011;70402;42.670;23.258;2024-01-25T04:09:08;0.50;;;0.50;;
5299;SDS011;70402;42.670;23.258;2024-01-25T04:11:35;1.37;;;0.67;;
5299;SDS011;70402;42.670;23.258;2024-01-25T04:14:02;0.70;;;0.50;;
5299;SDS011;70402;42.670;23.258;2024-01-25T04:16:28;0.73;;;0.60;;
5299;SDS011;70402;42.670;23.258;2024-01-25T04:18:54;0.60;;;0.60;;
5299;SDS011;70402;42.670;23.258;2024-01-25T04:21:20;0.80;;;0.80;;
5299;SDS011;70402;42.670;23.258;2024-01-25T04:23:47;2.23;;;1.27;;
5299;SDS011;70402;42.670;23.258;2024-01-25T04:26:14;0.60;;;0.60;;
5299;SDS011;70402;42.670;23.258;2024-01-25T04:28:41;0.70;;;0.70;;
5299;SDS011;70402;42.670;23.258;2024-01-25T04:31:07;1.97;;;0.77;;
5299;SDS011;70402;42.670;23.258;2024-01-25T04:33:33;0.60;;;0.60;;
5299;SDS011;70402;42.670;23.258;2024-01-25T04:35:59;1.00;;;0.70;;
5299;SDS011;70402;42.670;23.258;2024-01-25T04:38:26;3.47;;;1.20;;
5299;SDS011;70402;42.670;23.258;2024-01-25T04:40:52;0.83;;;0.60;;
5299;SDS011;70402;42.670;23.258;2024-01-25T04:43:18;0.53;;;0.50;;
5299;SDS011;70402;42.670;23.258;2024-01-25T04:45:44;1.00;;;0.80;;
5299;SDS011;70402;42.670;23.258;2024-01-25T04:48:10;0.90;;;0.60;;
5299;SDS011;70402;42.670;23.258;2024-01-25T04:50:36;0.70;;;0.70;;
5299;SDS011;70402;42.670;23.258;2024-01-25T04:53:04;0.67;;;0.67;;
5299;SDS011;70402;42.670;23.258;2024-01-25T04:55:30;6.00;;;0.73;;
5299;SDS011;70402;42.670;23.258;2024-01-25T04:57:56;1.37;;;0.70;;
5299;SDS011;70402;42.670;23.258;2024-01-25T05:00:23;1.30;;;0.70;;
5299;SDS011;70402;42.670;23.258;2024-01-25T05:02:49;1.23;;;1.03;;
5299;SDS011;70402;42.670;23.258;2024-01-25T05:05:15;0.77;;;0.50;;
5299;SDS011;70402;42.670;23.258;2024-01-25T05:07:41;1.53;;;0.67;;
5299;SDS011;70402;42.670;23.258;2024-01-25T05:10:08;3.77;;;1.73;;
5299;SDS011;70402;42.670;23.258;2024-01-25T05:12:34;6.10;;;3.57;;
5299;SDS011;70402;42.670;23.258;2024-01-25T05:15:00;4.67;;;2.50;;
5299;SDS011;70402;42.670;23.258;2024-01-25T05:17:26;1.97;;;0.77;;
5299;SDS011;70402;42.670;23.258;2024-01-25T05:19:53;1.80;;;1.20;;
5299;SDS011;70402;42.670;23.258;2024-01-25T05:22:19;1.90;;;0.83;;
5299;SDS011;70402;42.670;23.258;2024-01-25T05:24:47;2.50;;;1.47;;
5299;SDS011;70402;42.670;23.258;2024-01-25T05:27:13;1.13;;;0.90;;
5299;SDS011;70402;42.670;23.258;2024-01-25T05:29:39;1.53;;;1.00;;
5299;SDS011;70402;42.670;23.258;2024-01-25T05:32:05;1.10;;;0.80;;
5299;SDS011;70402;42.670;23.258;2024-01-25T05:34:32;0.57;;;0.50;;
5299;SDS011;70402;42.670;23.258;2024-01-25T05:36:58;1.73;;;1.00;;
5299;SDS011;70402;42.670;23.258;2024-01-25T05:39:25;1.13;;;1.00;;
5299;SDS011;70402;42.670;23.258;2024-01-25T05:41:51;0.70;;;0.53;;
5299;SDS011;70402;42.670;23.258;2024-01-25T05:44:17;1.17;;;0.93;;
5299;SDS011;70402;42.670;23.258;2024-01-25T05:46:43;6.53;;;0.70;;
5299;SDS011;70402;42.670;23.258;2024-01-25T05:49:09;0.80;;;0.70;;
5299;SDS011;70402;42.670;23.258;2024-01-25T05:51:36;0.67;;;0.50;;
5299;SDS011;70402;42.670;23.258;2024-01-25T05:54:02;0.90;;;0.90;;
5299;SDS011;70402;42.670;23.258;2024-01-25T05:56:28;1.13;;;0.90;;
5299;SDS011;70402;42.670;23.258;2024-01-25T05:58:54;1.47;;;0.80;;
5299;SDS011;70402;42.670;23.258;2024-01-25T06:01:21;1.53;;;1.30;;
5299;SDS011;70402;42.670;23.258;2024-01-25T06:03:47;3.77;;;1.50;;
5299;SDS011;70402;42.670;23.258;2024-01-25T06:06:13;2.40;;;1.13;;
5299;SDS011;70402;42.670;23.258;2024-01-25T06:08:39;2.00;;;1.00;;
5299;SDS011;70402;42.670;23.258;2024-01-25T06:11:05;1.37;;;0.70;;
5299;SDS011;70402;42.670;23.258;2024-01-25T06:13:32;1.60;;;1.40;;
5299;SDS011;70402;42.670;23.258;2024-01-25T06:15:58;1.67;;;1.10;;
5299;SDS011;70402;42.670;23.258;2024-01-25T06:18:25;1.63;;;1.20;;
5299;SDS011;70402;42.670;23.258;2024-01-25T06:20:51;1.83;;;1.50;;
5299;SDS011;70402;42.670;23.258;2024-01-25T06:23:17;5.17;;;2.20;;
5299;SDS011;70402;42.670;23.258;2024-01-25T06:25:43;1.73;;;1.30;;
5299;SDS011;70402;42.670;23.258;2024-01-25T06:28:10;1.53;;;1.27;;
5299;SDS011;70402;42.670;23.258;2024-01-25T06:30:36;1.50;;;1.40;;
5299;SDS011;70402;42.670;23.258;2024-01-25T06:33:02;1.10;;;1.00;;
5299;SDS011;70402;42.670;23.258;2024-01-25T06:35:28;1.37;;;1.27;;
5299;SDS011;70402;42.670;23.258;2024-01-25T06:37:56;1.77;;;1.40;;
5299;SDS011;70402;42.670;23.258;2024-01-25T06:40:22;2.50;;;1.47;;
5299;SDS011;70402;42.670;23.258;2024-01-25T06:42:48;1.57;;;1.13;;
5299;SDS011;70402;42.670;23.258;2024-01-25T06:45:15;3.17;;;1.33;;
5299;SDS011;70402;42.670;23.258;2024-01-25T06:47:41;2.03;;;1.30;;
5299;SDS011;70402;42.670;23.258;2024-01-25T06:50:07;11.90;;;2.17;;
5299;SDS011;70402;42.670;23.258;2024-01-25T06:52:33;2.00;;;1.53;;
5299;SDS011;70402;42.670;23.258;2024-01-25T06:55:00;1.10;;;1.00;;
5299;SDS011;70402;42.670;23.258;2024-01-25T06:57:26;1.53;;;1.10;;
5299;SDS011;70402;42.670;23.258;2024-01-25T06:59:53;4.80;;;1.30;;
5299;SDS011;70402;42.670;23.258;2024-01-25T07:02:19;2.10;;;1.27;;
5299;SDS011;70402;42.670;23.258;2024-01-25T07:04:45;4.30;;;1.40;;
5299;SDS011;70402;42.670;23.258;2024-01-25T07:07:11;1.63;;;1.10;;
5299;SDS011;70402;42.670;23.258;2024-01-25T07:09:38;1.20;;;1.03;;
5299;SDS011;70402;42.670;23.258;2024-01-25T07:12:04;2.70;;;1.53;;
5299;SDS011;70402;42.670;23.258;2024-01-25T07:14:30;4.03;;;1.50;;
5299;SDS011;70402;42.670;23.258;2024-01-25T07:16:57;2.80;;;1.30;;
5299;SDS011;70402;42.670;23.258;2024-01-25T07:19:23;0.73;;;0.73;;
5299;SDS011;70402;42.670;23.258;2024-01-25T07:21:49;1.73;;;1.50;;
5299;SDS011;70402;42.670;23.258;2024-01-25T07:24:15;2.67;;;1.40;;
5299;SDS011;70402;42.670;23.258;2024-01-25T07:26:41;1.23;;;1.03;;
5299;SDS011;70402;42.670;23.258;2024-01-25T07:29:08;2.00;;;1.40;;
5299;SDS011;70402;42.670;23.258;2024-01-25T07:31:34;2.07;;;1.07;;
5299;SDS011;70402;42.670;23.258;2024-01-25T07:34:00;3.17;;;1.43;;
5299;SDS011;70402;42.670;23.258;2024-01-25T07:36:26;1.73;;;1.10;;
5299;SDS011;70402;42.670;23.258;2024-01-25T07:38:53;5.53;;;2.10;;
5299;SDS011;70402;42.670;23.258;2024-01-25T07:41:19;3.97;;;1.20;;
5299;SDS011;70402;42.670;23.258;2024-01-25T07:43:45;5.77;;;2.20;;
5299;SDS011;70402;42.670;23.258;2024-01-25T07:46:11;5.80;;;1.90;;
5299;SDS011;70402;42.670;23.258;2024-01-25T07:48:40;6.20;;;1.87;;
5299;SDS011;70402;42.670;23.258;2024-01-25T07:51:12;3.97;;;1.80;;
5299;SDS011;70402;42.670;23.258;2024-01-25T07:53:39;2.97;;;1.40;;
5299;SDS011;70402;42.670;23.258;2024-01-25T07:56:08;2.77;;;1.20;;
5299;SDS011;70402;42.670;23.258;2024-01-25T07:58:36;2.60;;;1.47;;
5299;SDS011;70402;42.670;23.258;2024-01-25T08:01:05;4.37;;;1.50;;
5299;SDS011;70402;42.670;23.258;2024-01-25T08:03:32;3.17;;;1.33;;
5299;SDS011;70402;42.670;23.258;2024-01-25T08:05:59;2.47;;;1.27;;
5299;SDS011;70402;42.670;23.258;2024-01-25T08:08:26;1.37;;;1.10;;
5299;SDS011;70402;42.670;23.258;2024-01-25T08:10:52;1.93;;;1.40;;
5299;SDS011;70402;42.670;23.258;2024-01-25T08:13:18;13.10;;;1.47;;
5299;SDS011;70402;42.670;23.258;2024-01-25T08:15:45;3.53;;;1.70;;
5299;SDS011;70402;42.670;23.258;2024-01-25T08:18:11;1.73;;;1.30;;
5299;SDS011;70402;42.670;23.258;2024-01-25T08:20:37;2.90;;;1.20;;
5299;SDS011;70402;42.670;23.258;2024-01-25T08:23:04;1.73;;;1.37;;
5299;SDS011;70402;42.670;23.258;2024-01-25T08:25:32;2.33;;;1.40;;
5299;SDS011;70402;42.670;23.258;2024-01-25T08:27:59;4.50;;;1.27;;
5299;SDS011;70402;42.670;23.258;2024-01-25T08:30:25;4.30;;;1.70;;
5299;SDS011;70402;42.670;23.258;2024-01-25T08:32:51;1.60;;;1.30;;
5299;SDS011;70402;42.670;23.258;2024-01-25T08:35:17;1.70;;;1.23;;
5299;SDS011;70402;42.670;23.258;2024-01-25T08:37:44;3.87;;;1.53;;
5299;SDS011;70402;42.670;23.258;2024-01-25T08:40:10;1.07;;;0.80;;
5299;SDS011;70402;42.670;23.258;2024-01-25T08:42:36;2.27;;;1.50;;
5299;SDS011;70402;42.670;23.258;2024-01-25T08:45:02;3.50;;;1.50;;
5299;SDS011;70402;42.670;23.258;2024-01-25T08:47:30;2.20;;;1.60;;
5299;SDS011;70402;42.670;23.258;2024-01-25T08:49:56;1.37;;;1.10;;
5299;SDS011;70402;42.670;23.258;2024-01-25T08:52:23;4.37;;;1.60;;
5299;SDS011;70402;42.670;23.258;2024-01-25T08:54:49;1.43;;;1.13;;
5299;SDS011;70402;42.670;23.258;2024-01-25T08:57:15;3.30;;;1.60;;
5299;SDS011;70402;42.670;23.258;2024-01-25T08:59:42;4.47;;;1.33;;
5299;SDS011;70402;42.670;23.258;2024-01-25T09:02:08;6.03;;;2.23;;
5299;SDS011;70402;42.670;23.258;2024-01-25T09:04:35;3.47;;;2.10;;
5299;SDS011;70402;42.670;23.258;2024-01-25T09:07:02;8.00;;;1.50;;
5299;SDS011;70402;42.670;23.258;2024-01-25T09:09:28;1.73;;;1.10;;
5299;SDS011;70402;42.670;23.258;2024-01-25T09:11:54;4.70;;;1.27;;
5299;SDS011;70402;42.670;23.258;2024-01-25T09:14:21;3.00;;;1.67;;
5299;SDS011;70402;42.670;23.258;2024-01-25T09:16:47;2.70;;;1.20;;
5299;SDS011;70402;42.670;23.258;2024-01-25T09:19:14;5.27;;;1.53;;
5299;SDS011;70402;42.670;23.258;2024-01-25T09:21:40;3.07;;;2.10;;
5299;SDS011;70402;42.670;23.258;2024-01-25T09:24:06;2.50;;;1.50;;
5299;SDS011;70402;42.670;23.258;2024-01-25T09:26:33;7.23;;;1.67;;
5299;SDS011;70402;42.670;23.258;2024-01-25T09:28:59;5.37;;;1.90;;
5299;SDS011;70402;42.670;23.258;2024-01-25T09:31:25;4.50;;;2.47;;
5299;SDS011;70402;42.670;23.258;2024-01-25T09:33:51;2.70;;;1.67;;
5299;SDS011;70402;42.670;23.258;2024-01-25T09:36:17;4.30;;;1.37;;
5299;SDS011;70402;42.670;23.258;2024-01-25T09:38:44;5.73;;;1.40;;
5299;SDS011;70402;42.670;23.258;2024-01-25T09:41:10;2.07;;;1.40;;
5299;SDS011;70402;42.670;23.258;2024-01-25T09:43:36;4.40;;;1.50;;
5299;SDS011;70402;42.670;23.258;2024-01-25T09:46:02;2.40;;;1.03;;
5299;SDS011;70402;42.670;23.258;2024-01-25T09:48:30;7.27;;;2.57;;
5299;SDS011;70402;42.670;23.258;2024-01-25T09:50:57;5.97;;;1.80;;
5299;SDS011;70402;42.670;23.258;2024-01-25T09:53:25;2.40;;;1.30;;
5299;SDS011;70402;42.670;23.258;2024-01-25T09:55:59;3.13;;;1.77;;
5299;SDS011;70402;42.670;23.258;2024-01-25T09:58:27;2.37;;;1.23;;
5299;SDS011;70402;42.670;23.258;2024-01-25T10:00:57;1.63;;;1.30;;
5299;SDS011;70402;42.670;23.258;2024-01-25T10:03:23;2.80;;;1.47;;
5299;SDS011;70402;42.670;23.258;2024-01-25T10:05:49;4.83;;;1.43;;
5299;SDS011;70402;42.670;23.258;2024-01-25T10:08:16;1.53;;;1.00;;
5299;SDS011;70402;42.670;23.258;2024-01-25T10:10:44;5.00;;;1.50;;
5299;SDS011;70402;42.670;23.258;2024-01-25T10:13:13;8.33;;;1.50;;
5299;SDS011;70402;42.670;23.258;2024-01-25T10:15:39;2.03;;;1.07;;
5299;SDS011;70402;42.670;23.258;2024-01-25T10:18:07;1.87;;;1.50;;
5299;SDS011;70402;42.670;23.258;2024-01-25T10:20:38;6.17;;;1.73;;
5299;SDS011;70402;42.670;23.258;2024-01-25T10:23:06;3.70;;;1.80;;
5299;SDS011;70402;42.670;23.258;2024-01-25T10:25:37;3.07;;;1.53;;
5299;SDS011;70402;42.670;23.258;2024-01-25T10:28:04;2.53;;;1.60;;
5299;SDS011;70402;42.670;23.258;2024-01-25T10:30:34;8.47;;;2.40;;
5299;SDS011;70402;42.670;23.258;2024-01-25T10:33:01;4.27;;;1.43;;
5299;SDS011;70402;42.670;23.258;2024-01-25T10:35:28;1.63;;;1.40;;
5299;SDS011;70402;42.670;23.258;2024-01-25T10:37:54;3.57;;;1.80;;
5299;SDS011;70402;42.670;23.258;2024-01-25T10:40:21;4.50;;;1.63;;
5299;SDS011;70402;42.670;23.258;2024-01-25T10:42:48;3.53;;;1.60;;
5299;SDS011;70402;42.670;23.258;2024-01-25T10:45:14;4.73;;;1.80;;
5299;SDS011;70402;42.670;23.258;2024-01-25T10:47:41;2.17;;;1.50;;
5299;SDS011;70402;42.670;23.258;2024-01-25T10:50:07;9.57;;;2.53;;
5299;SDS011;70402;42.670;23.258;2024-01-25T10:52:34;6.00;;;2.30;;
5299;SDS011;70402;42.670;23.258;2024-01-25T10:55:02;9.10;;;1.70;;
5299;SDS011;70402;42.670;23.258;2024-01-25T10:57:35;4.50;;;1.10;;
5299;SDS011;70402;42.670;23.258;2024-01-25T11:00:05;2.50;;;1.27;;
5299;SDS011;70402;42.670;23.258;2024-01-25T11:02:34;3.43;;;1.53;;
5299;SDS011;70402;42.670;23.258;2024-01-25T11:05:00;1.90;;;1.40;;
5299;SDS011;70402;42.670;23.258;2024-01-25T11:07:28;5.57;;;1.63;;
5299;SDS011;70402;42.670;23.258;2024-01-25T11:09:54;2.03;;;1.33;;
5299;SDS011;70402;42.670;23.258;2024-01-25T11:12:21;5.80;;;2.80;;
5299;SDS011;70402;42.670;23.258;2024-01-25T11:14:56;2.37;;;1.27;;
5299;SDS011;70402;42.670;23.258;2024-01-25T11:17:22;3.60;;;1.23;;
5299;SDS011;70402;42.670;23.258;2024-01-25T11:19:49;5.07;;;1.50;;
5299;SDS011;70402;42.670;23.258;2024-01-25T11:22:16;1.77;;;1.33;;
5299;SDS011;70402;42.670;23.258;2024-01-25T11:24:42;2.30;;;1.30;;
5299;SDS011;70402;42.670;23.258;2024-01-25T11:27:10;3.87;;;1.90;;
5299;SDS011;70402;42.670;23.258;2024-01-25T11:29:37;2.13;;;1.20;;
5299;SDS011;70402;42.670;23.258;2024-01-25T11:32:05;3.80;;;1.30;;
5299;SDS011;70402;42.670;23.258;2024-01-25T11:34:31;2.00;;;1.27;;
5299;SDS011;70402;42.670;23.258;2024-01-25T11:36:57;2.23;;;1.70;;
5299;SDS011;70402;42.670;23.258;2024-01-25T11:39:24;3.63;;;1.20;;
5299;SDS011;70402;42.670;23.258;2024-01-25T11:41:51;6.73;;;1.63;;
5299;SDS011;70402;42.670;23.258;2024-01-25T11:44:17;7.80;;;2.17;;
5299;SDS011;70402;42.670;23.258;2024-01-25T11:46:43;6.03;;;1.70;;
5299;SDS011;70402;42.670;23.258;2024-01-25T11:49:09;4.90;;;2.03;;
5299;SDS011;70402;42.670;23.258;2024-01-25T11:51:36;8.47;;;1.50;;
5299;SDS011;70402;42.670;23.258;2024-01-25T11:54:02;1.37;;;1.10;;
5299;SDS011;70402;42.670;23.258;2024-01-25T11:56:32;2.00;;;1.37;;
5299;SDS011;70402;42.670;23.258;2024-01-25T11:58:59;3.30;;;1.40;;
5299;SDS011;70402;42.670;23.258;2024-01-25T12:01:26;2.73;;;1.57;;
5299;SDS011;70402;42.670;23.258;2024-01-25T12:03:53;4.10;;;1.70;;
5299;SDS011;70402;42.670;23.258;2024-01-25T12:06:19;3.10;;;1.60;;
5299;SDS011;70402;42.670;23.258;2024-01-25T12:08:46;7.10;;;1.80;;
5299;SDS011;70402;42.670;23.258;2024-01-25T12:11:16;2.90;;;1.20;;
5299;SDS011;70402;42.670;23.258;2024-01-25T12:13:44;1.90;;;1.00;;
5299;SDS011;70402;42.670;23.258;2024-01-25T12:16:11;3.07;;;1.47;;
5299;SDS011;70402;42.670;23.258;2024-01-25T12:18:37;2.20;;;1.30;;
5299;SDS011;70402;42.670;23.258;2024-01-25T12:21:04;1.47;;;1.10;;
5299;SDS011;70402;42.670;23.258;2024-01-25T12:23:35;3.13;;;1.30;;
5299;SDS011;70402;42.670;23.258;2024-01-25T12:26:01;3.37;;;1.30;;
5299;SDS011;70402;42.670;23.258;2024-01-25T12:28:28;3.40;;;1.60;;
5299;SDS011;70402;42.670;23.258;2024-01-25T12:30:55;2.30;;;1.57;;
5299;SDS011;70402;42.670;23.258;2024-01-25T12:33:21;0.93;;;0.93;;
5299;SDS011;70402;42.670;23.258;2024-01-25T12:35:48;2.53;;;1.33;;
5299;SDS011;70402;42.670;23.258;2024-01-25T12:38:14;1.83;;;1.23;;
5299;SDS011;70402;42.670;23.258;2024-01-25T12:40:44;1.90;;;1.13;;
5299;SDS011;70402;42.670;23.258;2024-01-25T12:43:11;6.30;;;1.80;;
5299;SDS011;70402;42.670;23.258;2024-01-25T12:45:37;7.10;;;1.60;;
5299;SDS011;70402;42.670;23.258;2024-01-25T12:48:03;3.70;;;1.50;;
5299;SDS011;70402;42.670;23.258;2024-01-25T12:50:32;1.50;;;1.10;;
5299;SDS011;70402;42.670;23.258;2024-01-25T12:52:58;2.67;;;1.00;;
5299;SDS011;70402;42.670;23.258;2024-01-25T12:55:24;4.30;;;1.33;;
5299;SDS011;70402;42.670;23.258;2024-01-25T12:57:51;3.03;;;1.07;;
5299;SDS011;70402;42.670;23.258;2024-01-25T13:00:17;1.30;;;1.10;;
5299;SDS011;70402;42.670;23.258;2024-01-25T13:02:43;3.70;;;1.00;;
5299;SDS011;70402;42.670;23.258;2024-01-25T13:05:09;1.10;;;1.00;;
5299;SDS011;70402;42.670;23.258;2024-01-25T13:07:36;3.80;;;2.10;;
5299;SDS011;70402;42.670;23.258;2024-01-25T13:10:02;2.27;;;1.33;;
5299;SDS011;70402;42.670;23.258;2024-01-25T13:12:29;1.60;;;1.10;;
5299;SDS011;70402;42.670;23.258;2024-01-25T13:14:55;1.27;;;0.90;;
5299;SDS011;70402;42.670;23.258;2024-01-25T13:17:21;3.07;;;1.53;;
5299;SDS011;70402;42.670;23.258;2024-01-25T13:19:49;1.80;;;1.33;;
5299;SDS011;70402;42.670;23.258;2024-01-25T13:22:16;0.93;;;0.90;;
5299;SDS011;70402;42.670;23.258;2024-01-25T13:24:46;1.80;;;0.90;;
5299;SDS011;70402;42.670;23.258;2024-01-25T13:27:13;4.73;;;1.00;;
5299;SDS011;70402;42.670;23.258;2024-01-25T13:29:39;1.63;;;0.90;;
5299;SDS011;70402;42.670;23.258;2024-01-25T13:32:05;1.63;;;1.13;;
5299;SDS011;70402;42.670;23.258;2024-01-25T13:34:31;3.70;;;2.10;;
5299;SDS011;70402;42.670;23.258;2024-01-25T13:36:58;3.43;;;1.57;;
5299;SDS011;70402;42.670;23.258;2024-01-25T13:39:24;2.40;;;1.30;;
5299;SDS011;70402;42.670;23.258;2024-01-25T13:41:51;3.30;;;1.43;;
5299;SDS011;70402;42.670;23.258;2024-01-25T13:44:17;8.43;;;2.37;;
5299;SDS011;70402;42.670;23.258;2024-01-25T13:46:43;1.40;;;1.17;;
5299;SDS011;70402;42.670;23.258;2024-01-25T13:49:09;1.10;;;1.00;;
5299;SDS011;70402;42.670;23.258;2024-01-25T13:51:36;3.07;;;1.47;;
5299;SDS011;70402;42.670;23.258;2024-01-25T13:54:02;5.63;;;1.83;;
5299;SDS011;70402;42.670;23.258;2024-01-25T13:56:28;1.87;;;1.50;;
5299;SDS011;70402;42.670;23.258;2024-01-25T13:58:54;11.90;;;2.40;;
5299;SDS011;70402;42.670;23.258;2024-01-25T14:01:20;2.97;;;1.50;;
5299;SDS011;70402;42.670;23.258;2024-01-25T14:03:47;2.37;;;1.33;;
5299;SDS011;70402;42.670;23.258;2024-01-25T14:06:13;3.53;;;1.90;;
5299;SDS011;70402;42.670;23.258;2024-01-25T14:08:39;2.57;;;1.50;;
5299;SDS011;70402;42.670;23.258;2024-01-25T14:11:05;3.63;;;2.20;;
5299;SDS011;70402;42.670;23.258;2024-01-25T14:13:32;3.47;;;1.67;;
5299;SDS011;70402;42.670;23.258;2024-01-25T14:15:59;4.67;;;1.63;;
5299;SDS011;70402;42.670;23.258;2024-01-25T14:18:28;1.70;;;1.53;;
5299;SDS011;70402;42.670;23.258;2024-01-25T14:20:57;2.10;;;1.53;;
5299;SDS011;70402;42.670;23.258;2024-01-25T14:23:23;2.20;;;1.47;;
5299;SDS011;70402;42.670;23.258;2024-01-25T14:25:49;3.03;;;1.70;;
5299;SDS011;70402;42.670;23.258;2024-01-25T14:28:15;1.83;;;1.23;;
5299;SDS011;70402;42.670;23.258;2024-01-25T14:30:42;3.83;;;1.50;;
5299;SDS011;70402;42.670;23.258;2024-01-25T14:33:11;3.90;;;1.73;;
5299;SDS011;70402;42.670;23.258;2024-01-25T14:35:37;1.10;;;1.00;;
5299;SDS011;70402;42.670;23.258;2024-01-25T14:38:03;3.30;;;1.27;;
5299;SDS011;70402;42.670;23.258;2024-01-25T14:40:30;5.10;;;1.97;;
5299;SDS011;70402;42.670;23.258;2024-01-25T14:42:56;2.03;;;1.33;;